sensor_id;sensor_type;location;lat;lon;timestamp;P1;durP1;ratioP1;P2;durP2;ratioP2
69392;SDS011;56582;44.624;20.378;2022-11-06T00:00:56;45.30;;;10.55;;
69392;SDS011;56582;44.624;20.378;2022-11-06T00:03:22;100.40;;;13.17;;
69392;SDS011;56582;44.624;20.378;2022-11-06T00:05:48;89.05;;;12.57;;
69392;SDS011;56582;44.624;20.378;2022-11-06T00:08:34;56.72;;;11.50;;
69392;SDS011;56582;44.624;20.378;2022-11-06T00:11:11;128.15;;;12.52;;
69392;SDS011;56582;44.624;20.378;2022-11-06T00:13:38;238.43;;;13.37;;
69392;SDS011;56582;44.624;20.378;2022-11-06T00:16:05;149.75;;;11.90;;
69392;SDS011;56582;44.624;20.378;2022-11-06T00:18:32;41.78;;;11.82;;
69392;SDS011;56582;44.624;20.378;2022-11-06T00:20:58;86.00;;;10.32;;
69392;SDS011;56582;44.624;20.378;2022-11-06T00:23:24;126.10;;;12.48;;
69392;SDS011;56582;44.624;20.378;2022-11-06T00:25:49;133.73;;;12.67;;
69392;SDS011;56582;44.624;20.378;2022-11-06T00:28:19;94.72;;;11.60;;
69392;SDS011;56582;44.624;20.378;2022-11-06T00:30:45;51.23;;;12.13;;
69392;SDS011;56582;44.624;20.378;2022-11-06T00:33:10;173.67;;;12.10;;
69392;SDS011;56582;44.624;20.378;2022-11-06T00:35:37;157.50;;;12.48;;
69392;SDS011;56582;44.624;20.378;2022-11-06T00:38:03;80.50;;;11.43;;
69392;SDS011;56582;44.624;20.378;2022-11-06T00:40:29;57.13;;;10.88;;
69392;SDS011;56582;44.624;20.378;2022-11-06T00:42:54;95.23;;;10.63;;
69392;SDS011;56582;44.624;20.378;2022-11-06T00:45:20;84.72;;;12.80;;
69392;SDS011;56582;44.624;20.378;2022-11-06T00:47:45;125.73;;;12.20;;
69392;SDS011;56582;44.624;20.378;2022-11-06T00:50:11;56.80;;;10.65;;
69392;SDS011;56582;44.624;20.378;2022-11-06T00:52:36;36.37;;;10.00;;
69392;SDS011;56582;44.624;20.378;2022-11-06T00:55:02;64.63;;;11.43;;
69392;SDS011;56582;44.624;20.378;2022-11-06T00:57:27;107.33;;;12.33;;
69392;SDS011;56582;44.624;20.378;2022-11-06T00:59:53;117.63;;;11.95;;
69392;SDS011;56582;44.624;20.378;2022-11-06T01:02:18;91.67;;;11.27;;
69392;SDS011;56582;44.624;20.378;2022-11-06T01:04:45;166.50;;;12.80;;
69392;SDS011;56582;44.624;20.378;2022-11-06T01:07:11;62.93;;;10.37;;
69392;SDS011;56582;44.624;20.378;2022-11-06T01:09:37;128.25;;;12.85;;
69392;SDS011;56582;44.624;20.378;2022-11-06T01:12:02;133.25;;;11.52;;
69392;SDS011;56582;44.624;20.378;2022-11-06T01:14:28;141.77;;;11.87;;
69392;SDS011;56582;44.624;20.378;2022-11-06T01:16:54;99.97;;;11.60;;
69392;SDS011;56582;44.624;20.378;2022-11-06T01:19:20;78.47;;;12.33;;
69392;SDS011;56582;44.624;20.378;2022-11-06T01:21:47;60.38;;;11.23;;
69392;SDS011;56582;44.624;20.378;2022-11-06T01:24:24;34.53;;;10.40;;
69392;SDS011;56582;44.624;20.378;2022-11-06T01:26:51;127.90;;;11.80;;
69392;SDS011;56582;44.624;20.378;2022-11-06T01:29:17;67.93;;;11.37;;
69392;SDS011;56582;44.624;20.378;2022-11-06T01:31:43;125.57;;;11.00;;
69392;SDS011;56582;44.624;20.378;2022-11-06T01:34:09;108.63;;;10.32;;
69392;SDS011;56582;44.624;20.378;2022-11-06T01:36:36;132.10;;;11.85;;
69392;SDS011;56582;44.624;20.378;2022-11-06T01:39:03;60.83;;;11.30;;
69392;SDS011;56582;44.624;20.378;2022-11-06T01:41:31;54.83;;;11.00;;
69392;SDS011;56582;44.624;20.378;2022-11-06T01:44:03;173.18;;;12.38;;
69392;SDS011;56582;44.624;20.378;2022-11-06T01:46:32;53.90;;;10.95;;
69392;SDS011;56582;44.624;20.378;2022-11-06T01:49:33;91.97;;;10.23;;
69392;SDS011;56582;44.624;20.378;2022-11-06T01:51:53;156.30;;;10.63;;
69392;SDS011;56582;44.624;20.378;2022-11-06T01:54:22;176.48;;;11.95;;
69392;SDS011;56582;44.624;20.378;2022-11-06T01:56:50;114.93;;;10.27;;
69392;SDS011;56582;44.624;20.378;2022-11-06T01:59:18;197.32;;;11.95;;
69392;SDS011;56582;44.624;20.378;2022-11-06T02:01:48;197.50;;;11.10;;
69392;SDS011;56582;44.624;20.378;2022-11-06T02:04:18;50.35;;;9.57;;
69392;SDS011;56582;44.624;20.378;2022-11-06T02:06:47;56.60;;;10.43;;
69392;SDS011;56582;44.624;20.378;2022-11-06T02:09:13;63.75;;;9.82;;
69392;SDS011;56582;44.624;20.378;2022-11-06T02:11:43;72.73;;;10.47;;
69392;SDS011;56582;44.624;20.378;2022-11-06T02:16:58;30.33;;;9.38;;
69392;SDS011;56582;44.624;20.378;2022-11-06T02:27:23;83.97;;;9.63;;
69392;SDS011;56582;44.624;20.378;2022-11-06T02:32:28;97.22;;;8.88;;
69392;SDS011;56582;44.624;20.378;2022-11-06T02:34:55;30.67;;;8.63;;
69392;SDS011;56582;44.624;20.378;2022-11-06T02:37:28;64.30;;;8.40;;
69392;SDS011;56582;44.624;20.378;2022-11-06T02:39:59;47.20;;;7.28;;
69392;SDS011;56582;44.624;20.378;2022-11-06T02:42:28;135.10;;;8.32;;
69392;SDS011;56582;44.624;20.378;2022-11-06T02:44:54;98.68;;;8.70;;
69392;SDS011;56582;44.624;20.378;2022-11-06T02:47:22;34.55;;;7.53;;
69392;SDS011;56582;44.624;20.378;2022-11-06T02:49:53;34.03;;;7.93;;
69392;SDS011;56582;44.624;20.378;2022-11-06T02:52:27;49.65;;;8.82;;
69392;SDS011;56582;44.624;20.378;2022-11-06T02:54:58;75.28;;;8.40;;
69392;SDS011;56582;44.624;20.378;2022-11-06T02:57:34;86.20;;;9.05;;
69392;SDS011;56582;44.624;20.378;2022-11-06T03:00:06;99.78;;;9.45;;
69392;SDS011;56582;44.624;20.378;2022-11-06T03:02:39;73.23;;;7.90;;
69392;SDS011;56582;44.624;20.378;2022-11-06T03:05:13;139.63;;;9.70;;
69392;SDS011;56582;44.624;20.378;2022-11-06T03:07:53;125.78;;;9.50;;
69392;SDS011;56582;44.624;20.378;2022-11-06T03:10:27;107.80;;;9.02;;
69392;SDS011;56582;44.624;20.378;2022-11-06T03:12:59;104.22;;;8.35;;
69392;SDS011;56582;44.624;20.378;2022-11-06T03:21:05;53.85;;;10.93;;
69392;SDS011;56582;44.624;20.378;2022-11-06T03:23:37;206.13;;;14.10;;
69392;SDS011;56582;44.624;20.378;2022-11-06T03:26:11;183.18;;;14.88;;
69392;SDS011;56582;44.624;20.378;2022-11-06T03:28:47;94.13;;;11.20;;
69392;SDS011;56582;44.624;20.378;2022-11-06T03:31:17;130.20;;;13.25;;
69392;SDS011;56582;44.624;20.378;2022-11-06T03:33:53;101.55;;;13.30;;
69392;SDS011;56582;44.624;20.378;2022-11-06T03:36:24;96.55;;;12.30;;
69392;SDS011;56582;44.624;20.378;2022-11-06T03:39:15;125.20;;;13.30;;
69392;SDS011;56582;44.624;20.378;2022-11-06T03:41:47;74.60;;;11.73;;
69392;SDS011;56582;44.624;20.378;2022-11-06T03:44:17;123.35;;;14.98;;
69392;SDS011;56582;44.624;20.378;2022-11-06T03:46:48;100.07;;;16.00;;
69392;SDS011;56582;44.624;20.378;2022-11-06T03:49:21;211.80;;;17.30;;
69392;SDS011;56582;44.624;20.378;2022-11-06T03:51:58;236.93;;;14.40;;
69392;SDS011;56582;44.624;20.378;2022-11-06T03:54:33;126.20;;;11.63;;
69392;SDS011;56582;44.624;20.378;2022-11-06T03:57:20;210.50;;;14.10;;
69392;SDS011;56582;44.624;20.378;2022-11-06T03:59:54;113.25;;;12.07;;
69392;SDS011;56582;44.624;20.378;2022-11-06T04:02:24;141.90;;;12.43;;
69392;SDS011;56582;44.624;20.378;2022-11-06T04:04:55;268.20;;;14.95;;
69392;SDS011;56582;44.624;20.378;2022-11-06T04:07:24;207.80;;;13.20;;
69392;SDS011;56582;44.624;20.378;2022-11-06T04:10:05;190.65;;;14.07;;
69392;SDS011;56582;44.624;20.378;2022-11-06T04:12:53;206.98;;;13.80;;
69392;SDS011;56582;44.624;20.378;2022-11-06T04:15:41;148.10;;;13.23;;
69392;SDS011;56582;44.624;20.378;2022-11-06T04:18:12;85.45;;;12.52;;
69392;SDS011;56582;44.624;20.378;2022-11-06T04:20:59;236.00;;;13.57;;
69392;SDS011;56582;44.624;20.378;2022-11-06T04:23:59;72.65;;;10.18;;
69392;SDS011;56582;44.624;20.378;2022-11-06T04:26:52;76.90;;;10.60;;
69392;SDS011;56582;44.624;20.378;2022-11-06T04:29:36;57.42;;;10.05;;
69392;SDS011;56582;44.624;20.378;2022-11-06T04:32:21;109.50;;;13.05;;
69392;SDS011;56582;44.624;20.378;2022-11-06T04:41:38;102.68;;;12.30;;
69392;SDS011;56582;44.624;20.378;2022-11-06T04:43:47;155.18;;;12.02;;
69392;SDS011;56582;44.624;20.378;2022-11-06T04:46:25;180.93;;;13.52;;
69392;SDS011;56582;44.624;20.378;2022-11-06T04:48:54;238.90;;;13.70;;
69392;SDS011;56582;44.624;20.378;2022-11-06T04:51:25;329.42;;;15.07;;
69392;SDS011;56582;44.624;20.378;2022-11-06T04:53:55;143.50;;;11.25;;
69392;SDS011;56582;44.624;20.378;2022-11-06T04:56:24;145.15;;;11.68;;
69392;SDS011;56582;44.624;20.378;2022-11-06T04:58:52;168.32;;;12.43;;
69392;SDS011;56582;44.624;20.378;2022-11-06T05:01:18;282.00;;;15.90;;
69392;SDS011;56582;44.624;20.378;2022-11-06T05:03:43;151.60;;;12.87;;
69392;SDS011;56582;44.624;20.378;2022-11-06T05:06:08;133.30;;;12.43;;
69392;SDS011;56582;44.624;20.378;2022-11-06T05:08:34;180.93;;;14.07;;
69392;SDS011;56582;44.624;20.378;2022-11-06T05:10:59;258.02;;;13.10;;
69392;SDS011;56582;44.624;20.378;2022-11-06T05:13:25;372.90;;;16.77;;
69392;SDS011;56582;44.624;20.378;2022-11-06T05:15:54;386.17;;;19.40;;
69392;SDS011;56582;44.624;20.378;2022-11-06T05:18:23;285.15;;;16.15;;
69392;SDS011;56582;44.624;20.378;2022-11-06T05:20:49;116.35;;;12.60;;
69392;SDS011;56582;44.624;20.378;2022-11-06T05:23:35;223.90;;;14.45;;
69392;SDS011;56582;44.624;20.378;2022-11-06T05:26:02;212.47;;;14.97;;
69392;SDS011;56582;44.624;20.378;2022-11-06T05:28:29;226.23;;;13.85;;
69392;SDS011;56582;44.624;20.378;2022-11-06T05:30:54;215.23;;;14.45;;
69392;SDS011;56582;44.624;20.378;2022-11-06T05:33:20;140.50;;;14.20;;
69392;SDS011;56582;44.624;20.378;2022-11-06T05:35:45;196.13;;;15.27;;
69392;SDS011;56582;44.624;20.378;2022-11-06T05:38:11;223.50;;;14.98;;
69392;SDS011;56582;44.624;20.378;2022-11-06T05:40:36;187.57;;;13.47;;
69392;SDS011;56582;44.624;20.378;2022-11-06T05:43:02;271.00;;;15.97;;
69392;SDS011;56582;44.624;20.378;2022-11-06T05:45:27;244.05;;;14.73;;
69392;SDS011;56582;44.624;20.378;2022-11-06T05:47:53;144.13;;;13.70;;
69392;SDS011;56582;44.624;20.378;2022-11-06T05:50:18;187.60;;;14.37;;
69392;SDS011;56582;44.624;20.378;2022-11-06T05:52:44;143.95;;;11.98;;
69392;SDS011;56582;44.624;20.378;2022-11-06T05:55:09;316.70;;;17.27;;
69392;SDS011;56582;44.624;20.378;2022-11-06T05:57:35;179.33;;;15.67;;
69392;SDS011;56582;44.624;20.378;2022-11-06T06:00:00;179.13;;;15.57;;
69392;SDS011;56582;44.624;20.378;2022-11-06T06:02:26;130.07;;;14.57;;
69392;SDS011;56582;44.624;20.378;2022-11-06T06:04:51;153.77;;;15.47;;
69392;SDS011;56582;44.624;20.378;2022-11-06T06:07:17;289.10;;;15.57;;
69392;SDS011;56582;44.624;20.378;2022-11-06T06:09:42;317.73;;;19.90;;
69392;SDS011;56582;44.624;20.378;2022-11-06T06:12:09;287.20;;;15.27;;
69392;SDS011;56582;44.624;20.378;2022-11-06T06:14:36;334.75;;;15.38;;
69392;SDS011;56582;44.624;20.378;2022-11-06T06:17:01;143.67;;;10.90;;
69392;SDS011;56582;44.624;20.378;2022-11-06T06:19:27;173.80;;;12.20;;
69392;SDS011;56582;44.624;20.378;2022-11-06T06:21:52;200.40;;;11.77;;
69392;SDS011;56582;44.624;20.378;2022-11-06T06:24:18;154.63;;;12.10;;
69392;SDS011;56582;44.624;20.378;2022-11-06T06:26:43;197.97;;;13.20;;
69392;SDS011;56582;44.624;20.378;2022-11-06T06:29:09;271.07;;;14.43;;
69392;SDS011;56582;44.624;20.378;2022-11-06T06:31:34;246.32;;;13.18;;
69392;SDS011;56582;44.624;20.378;2022-11-06T06:34:00;159.67;;;12.90;;
69392;SDS011;56582;44.624;20.378;2022-11-06T06:36:25;206.83;;;13.33;;
69392;SDS011;56582;44.624;20.378;2022-11-06T06:38:50;189.73;;;11.87;;
69392;SDS011;56582;44.624;20.378;2022-11-06T06:41:16;230.95;;;15.95;;
69392;SDS011;56582;44.624;20.378;2022-11-06T06:43:41;118.20;;;16.47;;
69392;SDS011;56582;44.624;20.378;2022-11-06T06:46:07;145.47;;;14.80;;
69392;SDS011;56582;44.624;20.378;2022-11-06T06:48:32;235.73;;;17.23;;
69392;SDS011;56582;44.624;20.378;2022-11-06T06:50:58;78.63;;;13.48;;
69392;SDS011;56582;44.624;20.378;2022-11-06T06:53:25;182.15;;;14.52;;
69392;SDS011;56582;44.624;20.378;2022-11-06T06:55:51;343.83;;;18.53;;
69392;SDS011;56582;44.624;20.378;2022-11-06T06:58:16;232.50;;;17.42;;
69392;SDS011;56582;44.624;20.378;2022-11-06T07:00:42;248.90;;;18.20;;
69392;SDS011;56582;44.624;20.378;2022-11-06T07:03:08;342.88;;;18.45;;
69392;SDS011;56582;44.624;20.378;2022-11-06T07:05:33;98.73;;;14.33;;
69392;SDS011;56582;44.624;20.378;2022-11-06T07:07:59;196.57;;;16.00;;
69392;SDS011;56582;44.624;20.378;2022-11-06T07:10:25;28.43;;;11.00;;
69392;SDS011;56582;44.624;20.378;2022-11-06T07:12:50;103.22;;;9.85;;
69392;SDS011;56582;44.624;20.378;2022-11-06T07:15:15;102.20;;;11.00;;
69392;SDS011;56582;44.624;20.378;2022-11-06T07:17:41;121.43;;;13.27;;
69392;SDS011;56582;44.624;20.378;2022-11-06T07:20:07;92.53;;;13.03;;
69392;SDS011;56582;44.624;20.378;2022-11-06T07:22:33;60.05;;;11.05;;
69392;SDS011;56582;44.624;20.378;2022-11-06T07:24:59;40.33;;;11.25;;
69392;SDS011;56582;44.624;20.378;2022-11-06T07:27:24;101.90;;;11.57;;
69392;SDS011;56582;44.624;20.378;2022-11-06T07:29:50;231.70;;;15.15;;
69392;SDS011;56582;44.624;20.378;2022-11-06T07:32:15;138.27;;;11.83;;
69392;SDS011;56582;44.624;20.378;2022-11-06T07:34:41;190.37;;;11.80;;
69392;SDS011;56582;44.624;20.378;2022-11-06T07:37:06;120.32;;;10.52;;
69392;SDS011;56582;44.624;20.378;2022-11-06T07:39:32;101.13;;;11.30;;
69392;SDS011;56582;44.624;20.378;2022-11-06T07:41:58;177.15;;;13.52;;
69392;SDS011;56582;44.624;20.378;2022-11-06T07:44:24;204.95;;;12.30;;
69392;SDS011;56582;44.624;20.378;2022-11-06T07:46:50;316.77;;;15.13;;
69392;SDS011;56582;44.624;20.378;2022-11-06T07:49:15;144.47;;;15.50;;
69392;SDS011;56582;44.624;20.378;2022-11-06T07:51:41;180.18;;;14.93;;
69392;SDS011;56582;44.624;20.378;2022-11-06T07:54:09;319.38;;;17.38;;
69392;SDS011;56582;44.624;20.378;2022-11-06T07:56:35;295.33;;;18.27;;
69392;SDS011;56582;44.624;20.378;2022-11-06T07:59:00;181.63;;;11.50;;
69392;SDS011;56582;44.624;20.378;2022-11-06T08:01:26;125.43;;;11.90;;
69392;SDS011;56582;44.624;20.378;2022-11-06T08:03:51;154.67;;;12.70;;
69392;SDS011;56582;44.624;20.378;2022-11-06T08:06:17;158.77;;;11.90;;
69392;SDS011;56582;44.624;20.378;2022-11-06T08:08:43;144.20;;;11.10;;
69392;SDS011;56582;44.624;20.378;2022-11-06T08:11:09;160.02;;;12.65;;
69392;SDS011;56582;44.624;20.378;2022-11-06T08:13:35;345.17;;;16.45;;
69392;SDS011;56582;44.624;20.378;2022-11-06T08:16:03;198.37;;;14.30;;
69392;SDS011;56582;44.624;20.378;2022-11-06T08:18:32;115.68;;;16.35;;
69392;SDS011;56582;44.624;20.378;2022-11-06T08:20:58;172.95;;;33.78;;
69392;SDS011;56582;44.624;20.378;2022-11-06T08:23:24;137.93;;;13.40;;
69392;SDS011;56582;44.624;20.378;2022-11-06T08:25:52;162.98;;;12.38;;
69392;SDS011;56582;44.624;20.378;2022-11-06T08:28:19;73.47;;;9.03;;
69392;SDS011;56582;44.624;20.378;2022-11-06T08:30:45;184.30;;;15.43;;
69392;SDS011;56582;44.624;20.378;2022-11-06T08:33:10;149.03;;;15.23;;
69392;SDS011;56582;44.624;20.378;2022-11-06T08:35:36;219.00;;;16.50;;
69392;SDS011;56582;44.624;20.378;2022-11-06T08:38:02;179.30;;;25.70;;
69392;SDS011;56582;44.624;20.378;2022-11-06T08:40:28;232.50;;;30.38;;
69392;SDS011;56582;44.624;20.378;2022-11-06T08:43:01;130.48;;;13.80;;
69392;SDS011;56582;44.624;20.378;2022-11-06T08:45:28;83.30;;;14.55;;
69392;SDS011;56582;44.624;20.378;2022-11-06T08:47:54;139.63;;;27.60;;
69392;SDS011;56582;44.624;20.378;2022-11-06T08:50:19;191.30;;;31.13;;
69392;SDS011;56582;44.624;20.378;2022-11-06T08:52:45;67.13;;;20.07;;
69392;SDS011;56582;44.624;20.378;2022-11-06T08:55:11;74.32;;;17.95;;
69392;SDS011;56582;44.624;20.378;2022-11-06T08:57:36;104.30;;;19.00;;
69392;SDS011;56582;44.624;20.378;2022-11-06T09:00:02;136.37;;;15.90;;
69392;SDS011;56582;44.624;20.378;2022-11-06T09:02:28;133.85;;;17.10;;
69392;SDS011;56582;44.624;20.378;2022-11-06T09:04:54;76.37;;;15.37;;
69392;SDS011;56582;44.624;20.378;2022-11-06T09:07:19;110.37;;;11.90;;
69392;SDS011;56582;44.624;20.378;2022-11-06T09:09:45;152.20;;;14.77;;
69392;SDS011;56582;44.624;20.378;2022-11-06T09:12:10;208.50;;;13.70;;
69392;SDS011;56582;44.624;20.378;2022-11-06T09:14:36;118.13;;;12.00;;
69392;SDS011;56582;44.624;20.378;2022-11-06T09:17:01;111.53;;;14.63;;
69392;SDS011;56582;44.624;20.378;2022-11-06T09:19:27;192.83;;;17.97;;
69392;SDS011;56582;44.624;20.378;2022-11-06T09:21:52;111.80;;;22.93;;
69392;SDS011;56582;44.624;20.378;2022-11-06T09:24:18;63.53;;;16.52;;
69392;SDS011;56582;44.624;20.378;2022-11-06T09:26:44;245.60;;;15.20;;
69392;SDS011;56582;44.624;20.378;2022-11-06T09:29:09;184.33;;;15.80;;
69392;SDS011;56582;44.624;20.378;2022-11-06T09:31:35;133.07;;;15.67;;
69392;SDS011;56582;44.624;20.378;2022-11-06T09:34:00;97.77;;;13.87;;
69392;SDS011;56582;44.624;20.378;2022-11-06T09:36:27;57.20;;;13.60;;
69392;SDS011;56582;44.624;20.378;2022-11-06T09:38:52;75.47;;;13.00;;
69392;SDS011;56582;44.624;20.378;2022-11-06T09:41:22;125.37;;;15.83;;
69392;SDS011;56582;44.624;20.378;2022-11-06T09:46:40;95.97;;;14.67;;
69392;SDS011;56582;44.624;20.378;2022-11-06T09:49:19;52.70;;;13.55;;
69392;SDS011;56582;44.624;20.378;2022-11-06T09:54:43;142.05;;;16.63;;
69392;SDS011;56582;44.624;20.378;2022-11-06T09:57:15;116.22;;;15.23;;
69392;SDS011;56582;44.624;20.378;2022-11-06T09:59:45;76.67;;;18.50;;
69392;SDS011;56582;44.624;20.378;2022-11-06T10:05:07;69.75;;;23.58;;
69392;SDS011;56582;44.624;20.378;2022-11-06T10:07:49;66.55;;;16.35;;
69392;SDS011;56582;44.624;20.378;2022-11-06T10:10:18;59.72;;;15.93;;
69392;SDS011;56582;44.624;20.378;2022-11-06T10:13:10;87.97;;;15.90;;
69392;SDS011;56582;44.624;20.378;2022-11-06T10:15:47;36.78;;;15.35;;
69392;SDS011;56582;44.624;20.378;2022-11-06T10:18:24;32.97;;;14.95;;
69392;SDS011;56582;44.624;20.378;2022-11-06T10:21:03;71.50;;;13.10;;
69392;SDS011;56582;44.624;20.378;2022-11-06T10:23:44;59.85;;;16.27;;
69392;SDS011;56582;44.624;20.378;2022-11-06T10:26:18;86.33;;;13.30;;
69392;SDS011;56582;44.624;20.378;2022-11-06T10:34:21;84.97;;;14.10;;
69392;SDS011;56582;44.624;20.378;2022-11-06T10:36:55;103.20;;;23.20;;
69392;SDS011;56582;44.624;20.378;2022-11-06T10:39:27;99.47;;;27.70;;
69392;SDS011;56582;44.624;20.378;2022-11-06T10:42:00;96.20;;;22.38;;
69392;SDS011;56582;44.624;20.378;2022-11-06T10:44:32;82.07;;;18.50;;
69392;SDS011;56582;44.624;20.378;2022-11-06T11:00:43;124.88;;;28.75;;
69392;SDS011;56582;44.624;20.378;2022-11-06T11:05:47;157.10;;;37.80;;
69392;SDS011;56582;44.624;20.378;2022-11-06T11:13:31;76.70;;;18.30;;
69392;SDS011;56582;44.624;20.378;2022-11-06T11:15:57;143.27;;;18.85;;
69392;SDS011;56582;44.624;20.378;2022-11-06T11:18:24;100.00;;;15.63;;
69392;SDS011;56582;44.624;20.378;2022-11-06T11:24:12;70.17;;;13.73;;
69392;SDS011;56582;44.624;20.378;2022-11-06T11:26:45;37.13;;;14.77;;
69392;SDS011;56582;44.624;20.378;2022-11-06T11:29:25;73.53;;;18.15;;
69392;SDS011;56582;44.624;20.378;2022-11-06T11:31:57;57.25;;;15.98;;
69392;SDS011;56582;44.624;20.378;2022-11-06T11:34:26;73.80;;;14.20;;
69392;SDS011;56582;44.624;20.378;2022-11-06T11:36:55;100.00;;;19.20;;
69392;SDS011;56582;44.624;20.378;2022-11-06T11:39:27;109.38;;;21.83;;
69392;SDS011;56582;44.624;20.378;2022-11-06T11:47:32;183.43;;;22.38;;
69392;SDS011;56582;44.624;20.378;2022-11-06T11:52:39;147.93;;;20.45;;
69392;SDS011;56582;44.624;20.378;2022-11-06T11:55:12;118.23;;;18.77;;
69392;SDS011;56582;44.624;20.378;2022-11-06T11:57:41;102.43;;;15.52;;
69392;SDS011;56582;44.624;20.378;2022-11-06T12:00:19;184.88;;;18.27;;
69392;SDS011;56582;44.624;20.378;2022-11-06T12:02:50;140.70;;;15.98;;
69392;SDS011;56582;44.624;20.378;2022-11-06T12:05:23;163.40;;;15.80;;
69392;SDS011;56582;44.624;20.378;2022-11-06T12:07:57;180.07;;;15.27;;
69392;SDS011;56582;44.624;20.378;2022-11-06T12:13:25;191.95;;;19.25;;
69392;SDS011;56582;44.624;20.378;2022-11-06T12:15:57;117.20;;;18.30;;
69392;SDS011;56582;44.624;20.378;2022-11-06T12:18:27;50.67;;;15.40;;
69392;SDS011;56582;44.624;20.378;2022-11-06T12:21:07;66.77;;;15.20;;
69392;SDS011;56582;44.624;20.378;2022-11-06T12:24:00;71.03;;;15.85;;
69392;SDS011;56582;44.624;20.378;2022-11-06T12:29:34;119.85;;;19.65;;
69392;SDS011;56582;44.624;20.378;2022-11-06T12:37:34;125.03;;;19.30;;
69392;SDS011;56582;44.624;20.378;2022-11-06T12:40:19;122.80;;;19.98;;
69392;SDS011;56582;44.624;20.378;2022-11-06T12:43:32;177.02;;;19.15;;
69392;SDS011;56582;44.624;20.378;2022-11-06T12:45:38;166.68;;;16.95;;
69392;SDS011;56582;44.624;20.378;2022-11-06T12:50:43;164.07;;;22.75;;
69392;SDS011;56582;44.624;20.378;2022-11-06T12:53:23;162.88;;;20.33;;
69392;SDS011;56582;44.624;20.378;2022-11-06T12:55:55;176.13;;;21.73;;
69392;SDS011;56582;44.624;20.378;2022-11-06T13:01:19;150.03;;;18.13;;
69392;SDS011;56582;44.624;20.378;2022-11-06T13:12:39;70.45;;;13.48;;
69392;SDS011;56582;44.624;20.378;2022-11-06T13:18:07;170.07;;;15.50;;
69392;SDS011;56582;44.624;20.378;2022-11-06T13:21:01;177.77;;;18.00;;
69392;SDS011;56582;44.624;20.378;2022-11-06T13:28:47;254.60;;;23.10;;
69392;SDS011;56582;44.624;20.378;2022-11-06T13:31:21;159.90;;;25.17;;
69392;SDS011;56582;44.624;20.378;2022-11-06T13:33:51;308.67;;;31.08;;
69392;SDS011;56582;44.624;20.378;2022-11-06T13:36:21;243.95;;;41.70;;
69392;SDS011;56582;44.624;20.378;2022-11-06T13:38:49;175.50;;;24.38;;
69392;SDS011;56582;44.624;20.378;2022-11-06T13:41:20;219.07;;;56.40;;
69392;SDS011;56582;44.624;20.378;2022-11-06T13:43:50;249.65;;;54.05;;
69392;SDS011;56582;44.624;20.378;2022-11-06T13:46:21;197.25;;;34.53;;
69392;SDS011;56582;44.624;20.378;2022-11-06T13:51:42;147.32;;;32.53;;
69392;SDS011;56582;44.624;20.378;2022-11-06T14:08:01;53.53;;;19.83;;
69392;SDS011;56582;44.624;20.378;2022-11-06T14:10:33;63.67;;;17.80;;
69392;SDS011;56582;44.624;20.378;2022-11-06T14:13:01;70.30;;;19.30;;
69392;SDS011;56582;44.624;20.378;2022-11-06T14:15:33;93.55;;;21.58;;
69392;SDS011;56582;44.624;20.378;2022-11-06T14:18:05;71.07;;;22.85;;
69392;SDS011;56582;44.624;20.378;2022-11-06T14:20:38;138.87;;;19.73;;
69392;SDS011;56582;44.624;20.378;2022-11-06T14:28:32;215.27;;;26.85;;
69392;SDS011;56582;44.624;20.378;2022-11-06T14:30:58;233.57;;;23.65;;
69392;SDS011;56582;44.624;20.378;2022-11-06T14:38:50;74.68;;;20.05;;
69392;SDS011;56582;44.624;20.378;2022-11-06T14:41:59;119.30;;;20.98;;
69392;SDS011;56582;44.624;20.378;2022-11-06T14:44:19;89.30;;;18.20;;
69392;SDS011;56582;44.624;20.378;2022-11-06T14:46:52;102.53;;;19.08;;
69392;SDS011;56582;44.624;20.378;2022-11-06T14:49:33;103.72;;;20.85;;
69392;SDS011;56582;44.624;20.378;2022-11-06T14:52:03;145.25;;;22.63;;
69392;SDS011;56582;44.624;20.378;2022-11-06T14:54:32;159.05;;;19.05;;
69392;SDS011;56582;44.624;20.378;2022-11-06T14:57:01;125.27;;;17.37;;
69392;SDS011;56582;44.624;20.378;2022-11-06T14:59:32;126.82;;;18.35;;
69392;SDS011;56582;44.624;20.378;2022-11-06T15:02:32;65.80;;;18.02;;
69392;SDS011;56582;44.624;20.378;2022-11-06T15:04:57;33.42;;;16.52;;
69392;SDS011;56582;44.624;20.378;2022-11-06T15:10:04;25.83;;;10.00;;
69392;SDS011;56582;44.624;20.378;2022-11-06T15:15:49;41.15;;;12.57;;
69392;SDS011;56582;44.624;20.378;2022-11-06T15:18:20;31.60;;;13.48;;
69392;SDS011;56582;44.624;20.378;2022-11-06T15:20:57;57.63;;;13.05;;
69392;SDS011;56582;44.624;20.378;2022-11-06T15:26:14;26.98;;;12.45;;
69392;SDS011;56582;44.624;20.378;2022-11-06T15:28:47;78.88;;;28.90;;
69392;SDS011;56582;44.624;20.378;2022-11-06T15:31:21;37.83;;;18.60;;
69392;SDS011;56582;44.624;20.378;2022-11-06T15:33:52;42.60;;;19.00;;
69392;SDS011;56582;44.624;20.378;2022-11-06T15:36:22;32.55;;;16.13;;
69392;SDS011;56582;44.624;20.378;2022-11-06T15:38:48;74.70;;;19.98;;
69392;SDS011;56582;44.624;20.378;2022-11-06T15:41:15;45.20;;;15.77;;
69392;SDS011;56582;44.624;20.378;2022-11-06T15:43:44;42.97;;;13.48;;
69392;SDS011;56582;44.624;20.378;2022-11-06T15:48:42;33.97;;;15.60;;
69392;SDS011;56582;44.624;20.378;2022-11-06T15:51:20;20.73;;;10.00;;
69392;SDS011;56582;44.624;20.378;2022-11-06T15:53:48;47.28;;;17.55;;
69392;SDS011;56582;44.624;20.378;2022-11-06T15:56:13;46.47;;;13.97;;
69392;SDS011;56582;44.624;20.378;2022-11-06T15:58:41;60.10;;;21.00;;
69392;SDS011;56582;44.624;20.378;2022-11-06T16:01:09;151.63;;;38.37;;
69392;SDS011;56582;44.624;20.378;2022-11-06T16:03:49;147.60;;;39.90;;
69392;SDS011;56582;44.624;20.378;2022-11-06T16:06:17;61.95;;;17.92;;
69392;SDS011;56582;44.624;20.378;2022-11-06T16:08:44;85.85;;;28.88;;
69392;SDS011;56582;44.624;20.378;2022-11-06T16:11:10;53.67;;;20.65;;
69392;SDS011;56582;44.624;20.378;2022-11-06T16:13:39;42.15;;;15.35;;
69392;SDS011;56582;44.624;20.378;2022-11-06T16:16:24;50.60;;;21.73;;
69392;SDS011;56582;44.624;20.378;2022-11-06T16:18:56;36.20;;;16.85;;
69392;SDS011;56582;44.624;20.378;2022-11-06T16:21:23;30.40;;;12.57;;
69392;SDS011;56582;44.624;20.378;2022-11-06T16:23:58;51.83;;;15.33;;
69392;SDS011;56582;44.624;20.378;2022-11-06T16:28:59;37.15;;;15.20;;
69392;SDS011;56582;44.624;20.378;2022-11-06T16:31:28;65.72;;;21.05;;
69392;SDS011;56582;44.624;20.378;2022-11-06T16:33:55;62.08;;;16.15;;
69392;SDS011;56582;44.624;20.378;2022-11-06T16:36:26;63.77;;;15.23;;
69392;SDS011;56582;44.624;20.378;2022-11-06T16:38:53;55.22;;;19.98;;
69392;SDS011;56582;44.624;20.378;2022-11-06T16:49:37;67.43;;;26.43;;
69392;SDS011;56582;44.624;20.378;2022-11-06T16:54:51;74.90;;;28.30;;